Terminal Aerodrome Forecast
Issued by NWS Tuscon, AZ

Home | Current Version | Previous Version | Text Only | Print | Product List | Glossary On
Versions: 1 2 3 4 5 6 7 8 9 10 11 12
000
FTUS45 KTWC 301100
TAFDUG
TAF
KDUG 301132Z 3012/3112 VRB03KT P6SM SCT100
     FM301800 19006KT P6SM SCT100
     FM302100 26008KT P6SM SCT110
     FM310400 VRB04KT P6SM FEW120=

USA.gov is the U.S. government's official web portal to all federal, state and local government web resources and services.